Terminal Aerodrome Forecast
Issued by NWS

Home | Current Version | Previous Version | Text Only | Print | Product List | Glossary On
Versions: 1 2 3 4 5 6 7 8 9 10 11 12 13 14 15 16 17
000
FTUS43 KGRB 230859 AAA
TAFCWA
TAF AMD
KCWA 230859Z 2309/2406 VRB03KT 1/2SM FG BKN002
      TEMPO 2309/2311 1SM BR SCT002
     FM231200 28007KT P6SM SCT090
     FM231600 29011G20KT P6SM SCT045
     FM240100 30008KT P6SM SCT050
     FM240400 30007KT P6SM SCT070
      AMD LTD TO CLD VIS AND WIND TIL 231100=

USA.gov is the U.S. government's official web portal to all federal, state and local government web resources and services.